createdAt,value
2024-01-19T00:00:26.591Z,2.73
2024-01-19T00:03:13.872Z,2.75
2024-01-19T00:06:01.254Z,2.81
2024-01-19T00:08:48.712Z,2.82
2024-01-19T00:11:37.372Z,2.91
2024-01-19T00:14:24.939Z,2.96
2024-01-19T00:17:12.136Z,2.90
2024-01-19T00:20:00.514Z,2.95
2024-01-19T00:22:48.145Z,2.94
2024-01-19T00:25:35.400Z,2.86
2024-01-19T00:28:22.594Z,2.83
2024-01-19T00:31:09.961Z,2.79
2024-01-19T00:33:57.751Z,2.84
2024-01-19T00:36:45.331Z,2.82
2024-01-19T00:39:33.614Z,2.83
2024-01-19T00:42:20.822Z,2.77
2024-01-19T00:45:12.951Z,2.82
2024-01-19T00:48:00.293Z,2.81
2024-01-19T00:50:47.591Z,2.75
2024-01-19T00:53:34.871Z,2.82
2024-01-19T00:56:23.240Z,2.82
2024-01-19T00:59:10.610Z,2.85
2024-01-19T01:01:57.814Z,2.93
2024-01-19T01:04:44.984Z,2.90
2024-01-19T01:07:32.184Z,2.98
2024-01-19T01:10:19.597Z,2.97
2024-01-19T01:13:06.999Z,3.00
2024-01-19T01:15:55.731Z,3.03
2024-01-19T01:18:43.100Z,3.10
2024-01-19T01:21:31.653Z,3.16
2024-01-19T01:24:20.383Z,3.17
2024-01-19T01:27:07.681Z,3.15
2024-01-19T01:29:55.452Z,3.19
2024-01-19T01:32:42.943Z,3.16
2024-01-19T01:35:30.483Z,3.19
2024-01-19T01:38:17.821Z,3.17
2024-01-19T01:41:05.194Z,3.20
2024-01-19T01:43:52.602Z,3.28
2024-01-19T01:46:39.924Z,3.27
2024-01-19T01:49:27.677Z,3.26
2024-01-19T01:52:15.085Z,3.24
2024-01-19T01:55:02.537Z,3.24
2024-01-19T01:57:49.989Z,3.24
2024-01-19T02:00:38.594Z,3.19
2024-01-19T02:03:27.274Z,3.13
2024-01-19T02:06:15.810Z,3.13
2024-01-19T02:09:03.525Z,3.04
2024-01-19T02:11:51.341Z,3.04
2024-01-19T02:14:38.710Z,3.02
2024-01-19T02:17:27.748Z,3.01
2024-01-19T02:20:15.628Z,2.96
2024-01-19T02:23:06.049Z,2.94
2024-01-19T02:25:55.237Z,2.89
2024-01-19T02:28:42.667Z,2.83
2024-01-19T02:31:29.909Z,2.79
2024-01-19T02:34:16.976Z,2.68
2024-01-19T02:37:05.420Z,2.65
2024-01-19T02:39:52.626Z,2.68
2024-01-19T02:42:39.944Z,2.65
2024-01-19T02:45:27.092Z,2.66
2024-01-19T02:48:14.474Z,2.57
2024-01-19T02:51:01.821Z,2.61
2024-01-19T02:53:49.171Z,2.58
2024-01-19T02:56:36.495Z,2.59
2024-01-19T02:59:23.877Z,2.55
2024-01-19T03:02:11.104Z,2.57
2024-01-19T03:04:58.383Z,2.53
2024-01-19T03:07:45.644Z,2.49
2024-01-19T03:10:32.942Z,2.45
2024-01-19T03:13:20.094Z,2.49
2024-01-19T03:16:08.273Z,2.46
2024-01-19T03:18:56.399Z,2.47
2024-01-19T03:21:45.116Z,2.49
2024-01-19T03:24:32.277Z,2.51
2024-01-19T03:27:19.483Z,2.60
2024-01-19T03:30:07.375Z,2.60
2024-01-19T03:32:54.612Z,2.64
2024-01-19T03:35:41.844Z,2.66
2024-01-19T03:38:30.678Z,2.66
2024-01-19T03:41:18.100Z,2.65
2024-01-19T03:44:05.478Z,2.65
2024-01-19T03:46:53.088Z,2.64
2024-01-19T03:49:41.273Z,2.65
2024-01-19T03:52:28.636Z,2.62
2024-01-19T03:55:18.985Z,2.61
2024-01-19T03:58:06.634Z,2.60
2024-01-19T04:00:53.788Z,2.60
2024-01-19T04:03:41.266Z,2.59
2024-01-19T04:06:28.594Z,2.56
2024-01-19T04:09:18.794Z,2.59
2024-01-19T04:12:17.479Z,2.59
2024-01-19T04:15:05.508Z,2.60
2024-01-19T04:17:53.504Z,2.67
2024-01-19T04:20:40.720Z,2.64
2024-01-19T04:23:27.917Z,2.68
2024-01-19T04:26:15.176Z,2.67
2024-01-19T04:29:03.146Z,2.69
2024-01-19T04:31:50.970Z,2.66
2024-01-19T04:34:38.179Z,2.66
2024-01-19T04:37:25.440Z,2.59
2024-01-19T04:40:12.763Z,2.65
2024-01-19T04:42:59.926Z,2.63
2024-01-19T04:45:47.187Z,2.59
2024-01-19T04:48:34.611Z,2.56
2024-01-19T04:51:21.955Z,2.50
2024-01-19T04:54:09.282Z,2.62
2024-01-19T04:56:56.587Z,2.61
2024-01-19T04:59:43.865Z,2.61
2024-01-19T05:02:34.136Z,2.59
2024-01-19T05:05:21.760Z,2.56
2024-01-19T05:08:09.068Z,2.58
2024-01-19T05:10:56.345Z,2.59
2024-01-19T05:13:44.599Z,2.55
2024-01-19T05:16:31.895Z,2.55
2024-01-19T05:19:19.104Z,2.59
2024-01-19T05:22:06.494Z,2.59
2024-01-19T05:24:53.724Z,2.60
2024-01-19T05:27:40.866Z,2.62
2024-01-19T05:30:28.097Z,2.59
2024-01-19T05:33:16.069Z,2.61
2024-01-19T05:36:03.546Z,2.65
2024-01-19T05:38:51.006Z,2.67
2024-01-19T05:41:38.335Z,2.76
2024-01-19T05:44:25.653Z,2.80
2024-01-19T05:47:13.172Z,2.89
2024-01-19T05:50:01.603Z,2.99
2024-01-19T05:52:48.907Z,3.03
2024-01-19T05:55:36.239Z,3.06
2024-01-19T05:58:23.465Z,3.16
2024-01-19T06:01:11.259Z,3.21
2024-01-19T06:04:01.870Z,3.27
2024-01-19T06:06:49.286Z,3.31
2024-01-19T06:09:37.107Z,3.35
2024-01-19T06:12:24.339Z,3.31
2024-01-19T06:15:11.713Z,3.33
2024-01-19T06:17:59.102Z,3.29
2024-01-19T06:20:46.443Z,3.21
2024-01-19T06:23:33.774Z,3.17
2024-01-19T06:26:20.988Z,3.17
2024-01-19T06:29:08.216Z,3.15
2024-01-19T06:31:55.551Z,3.13
2024-01-19T06:34:43.764Z,3.10
2024-01-19T06:37:31.045Z,3.03
2024-01-19T06:40:19.216Z,3.01
2024-01-19T06:43:06.403Z,3.00
2024-01-19T06:45:53.609Z,2.99
2024-01-19T06:48:43.213Z,2.93
2024-01-19T06:51:31.623Z,2.93
2024-01-19T06:54:19.065Z,2.89
2024-01-19T06:57:06.622Z,2.83
2024-01-19T06:59:53.955Z,2.78
2024-01-19T07:02:41.167Z,2.74
2024-01-19T07:05:28.642Z,2.65
2024-01-19T07:08:17.466Z,2.66
2024-01-19T07:11:04.984Z,2.55
2024-01-19T07:13:52.270Z,2.57
2024-01-19T07:16:44.721Z,2.51
2024-01-19T07:19:32.174Z,2.47
2024-01-19T07:22:19.560Z,2.40
2024-01-19T07:25:07.496Z,2.41
2024-01-19T07:27:54.751Z,2.35
2024-01-19T07:30:42.065Z,2.34
2024-01-19T07:33:33.162Z,2.29
2024-01-19T07:36:20.999Z,2.21
2024-01-19T07:39:08.698Z,2.20
2024-01-19T07:41:56.029Z,2.19
2024-01-19T07:44:47.288Z,2.15
2024-01-19T07:47:36.911Z,2.13
2024-01-19T07:50:24.821Z,2.13
2024-01-19T07:53:12.215Z,2.10
2024-01-19T07:56:00.662Z,2.15
2024-01-19T07:58:47.899Z,2.16
2024-01-19T08:01:35.712Z,2.20
2024-01-19T08:04:22.951Z,2.15
2024-01-19T08:07:10.215Z,2.22
2024-01-19T08:09:57.448Z,2.22
2024-01-19T08:12:44.688Z,2.20
2024-01-19T08:15:31.911Z,2.22
2024-01-19T08:18:19.607Z,2.14
2024-01-19T08:21:07.258Z,2.19
2024-01-19T08:23:54.683Z,2.17
2024-01-19T08:26:42.050Z,2.19
2024-01-19T08:29:29.404Z,2.15
2024-01-19T08:32:17.095Z,2.24
2024-01-19T08:35:09.665Z,2.27
2024-01-19T08:37:59.469Z,2.33
2024-01-19T08:40:48.370Z,2.38
2024-01-19T08:43:35.792Z,2.39
2024-01-19T08:46:23.012Z,2.44
2024-01-19T08:49:10.709Z,2.49
2024-01-19T08:51:57.959Z,2.53
2024-01-19T08:54:45.258Z,2.64
2024-01-19T08:57:33.606Z,2.74
2024-01-19T09:00:21.562Z,2.73
2024-01-19T09:03:13.253Z,2.76
2024-01-19T09:06:00.456Z,2.74
2024-01-19T09:08:47.764Z,2.81
2024-01-19T09:11:35.498Z,2.86
2024-01-19T09:14:23.480Z,2.83
2024-01-19T09:17:13.346Z,2.94
2024-01-19T09:20:00.904Z,3.03
2024-01-19T09:22:48.244Z,3.03
2024-01-19T09:25:35.488Z,3.18
2024-01-19T09:28:23.115Z,3.19
2024-01-19T09:31:10.364Z,3.22
2024-01-19T09:33:57.924Z,3.22
2024-01-19T09:36:45.357Z,3.26
2024-01-19T09:39:32.783Z,3.29
2024-01-19T09:42:34.991Z,3.31
2024-01-19T09:45:27.651Z,3.36
2024-01-19T09:48:24.902Z,3.32
2024-01-19T09:51:13.013Z,3.45
2024-01-19T09:54:08.663Z,3.47
2024-01-19T09:56:56.003Z,3.58
2024-01-19T09:59:44.429Z,3.67
2024-01-19T10:02:34.007Z,3.84
2024-01-19T10:05:22.942Z,4.24
2024-01-19T10:08:15.135Z,4.47
2024-01-19T10:11:09.421Z,4.76
2024-01-19T10:13:56.689Z,5.18
2024-01-19T10:16:45.791Z,5.68
2024-01-19T10:19:35.105Z,6.11
2024-01-19T10:22:29.824Z,6.39
2024-01-19T10:25:17.183Z,6.66
2024-01-19T10:28:04.748Z,7.04
2024-01-19T10:30:51.907Z,7.17
2024-01-19T10:33:53.549Z,7.07
2024-01-19T10:36:41.518Z,6.89
2024-01-19T10:39:33.044Z,6.67
2024-01-19T10:42:21.268Z,6.52
2024-01-19T10:45:26.162Z,6.50
2024-01-19T10:48:28.037Z,6.72
2024-01-19T10:51:15.603Z,7.29
2024-01-19T10:54:04.021Z,7.64
2024-01-19T10:57:10.263Z,7.82
2024-01-19T10:59:57.597Z,7.96
2024-01-19T11:02:51.164Z,8.26
2024-01-19T11:05:38.477Z,8.43
2024-01-19T11:08:29.855Z,8.80
2024-01-19T11:11:19.965Z,8.95
2024-01-19T11:14:10.284Z,9.22
2024-01-19T11:16:58.050Z,9.20
2024-01-19T11:19:45.374Z,9.08
2024-01-19T11:22:33.541Z,9.11
2024-01-19T11:25:37.024Z,9.38
2024-01-19T11:28:47.325Z,9.57
2024-01-19T11:31:41.728Z,9.62
2024-01-19T11:34:53.531Z,9.64
2024-01-19T11:37:48.409Z,9.63
2024-01-19T11:40:37.043Z,9.51
2024-01-19T11:43:44.724Z,9.73
2024-01-19T11:46:53.076Z,10.01
2024-01-19T11:49:47.751Z,10.34
2024-01-19T11:52:43.843Z,10.58
2024-01-19T11:55:35.353Z,10.58
2024-01-19T11:58:30.689Z,10.45
2024-01-19T12:01:18.682Z,10.22
2024-01-19T12:04:06.204Z,9.69
2024-01-19T12:07:05.325Z,9.46
2024-01-19T12:10:16.652Z,9.39
2024-01-19T12:13:04.838Z,9.33
2024-01-19T12:15:54.188Z,9.28
2024-01-19T12:18:41.830Z,9.09
2024-01-19T12:21:29.354Z,9.38
2024-01-19T12:24:20.750Z,9.60
2024-01-19T12:27:07.916Z,9.59
2024-01-19T12:29:55.202Z,9.72
2024-01-19T12:32:47.240Z,9.91
2024-01-19T12:35:34.799Z,10.21
2024-01-19T12:38:24.746Z,10.37
2024-01-19T12:41:20.538Z,10.28
2024-01-19T12:44:08.166Z,10.28
2024-01-19T12:46:59.934Z,10.29
2024-01-19T12:49:53.731Z,10.27
2024-01-19T12:52:48.660Z,10.33
2024-01-19T12:55:36.083Z,10.27
2024-01-19T12:58:23.833Z,10.39
2024-01-19T13:01:11.886Z,10.35
2024-01-19T13:03:59.941Z,10.49
2024-01-19T13:06:47.660Z,10.53
2024-01-19T13:09:34.976Z,10.57
2024-01-19T13:12:22.628Z,10.88
2024-01-19T13:15:11.827Z,10.94
2024-01-19T13:18:23.544Z,11.08
2024-01-19T13:21:16.337Z,11.43
2024-01-19T13:24:04.014Z,11.65
2024-01-19T13:27:04.647Z,11.89
2024-01-19T13:29:51.901Z,12.12
2024-01-19T13:32:40.004Z,12.18
2024-01-19T13:35:28.040Z,12.15
2024-01-19T13:38:15.382Z,12.38
2024-01-19T13:41:02.938Z,12.44
2024-01-19T13:43:51.320Z,12.42
2024-01-19T13:46:39.261Z,12.56
2024-01-19T13:49:26.621Z,12.70
2024-01-19T13:52:13.962Z,12.85
2024-01-19T13:55:01.273Z,12.95
2024-01-19T13:57:48.606Z,12.95
2024-01-19T14:00:39.382Z,12.94
2024-01-19T14:03:26.836Z,12.96
2024-01-19T14:06:16.496Z,12.96
2024-01-19T14:09:04.397Z,12.80
2024-01-19T14:11:52.620Z,12.67
2024-01-19T14:14:41.575Z,12.48
2024-01-19T14:17:28.831Z,12.43
2024-01-19T14:20:17.344Z,12.36
2024-01-19T14:23:08.334Z,12.05
2024-01-19T14:25:55.596Z,11.83
2024-01-19T14:28:43.839Z,11.52
2024-01-19T14:31:33.478Z,11.16
2024-01-19T14:34:21.342Z,10.94
2024-01-19T14:37:19.249Z,10.70
2024-01-19T14:40:08.544Z,10.71
2024-01-19T14:43:00.892Z,10.76
2024-01-19T14:45:48.903Z,10.66
2024-01-19T14:48:37.868Z,10.63
2024-01-19T14:51:25.602Z,10.42
2024-01-19T14:54:16.384Z,10.13
2024-01-19T14:57:04.628Z,9.99
2024-01-19T14:59:51.847Z,9.68
2024-01-19T15:02:39.617Z,9.35
2024-01-19T15:05:27.021Z,9.03
2024-01-19T15:08:14.264Z,8.81
2024-01-19T15:11:02.291Z,8.63
2024-01-19T15:13:51.062Z,8.47
2024-01-19T15:16:42.656Z,8.24
2024-01-19T15:19:30.148Z,7.99
2024-01-19T15:22:17.822Z,7.92
2024-01-19T15:25:08.698Z,7.70
2024-01-19T15:27:57.214Z,7.62
2024-01-19T15:30:44.955Z,7.48
2024-01-19T15:33:32.482Z,7.35
2024-01-19T15:36:20.139Z,7.20
2024-01-19T15:39:08.085Z,7.07
2024-01-19T15:41:55.273Z,6.94
2024-01-19T15:44:43.613Z,6.84
2024-01-19T15:47:32.613Z,6.68
2024-01-19T15:50:22.385Z,6.55
2024-01-19T15:53:09.750Z,6.40
2024-01-19T15:55:59.340Z,6.31
2024-01-19T15:58:47.811Z,6.20
2024-01-19T16:01:41.256Z,6.11
2024-01-19T16:04:30.196Z,6.03
2024-01-19T16:07:18.334Z,5.90
2024-01-19T16:10:07.571Z,5.89
2024-01-19T16:12:55.711Z,5.78
2024-01-19T16:15:44.352Z,5.66
2024-01-19T16:18:35.081Z,5.62
2024-01-19T16:21:27.935Z,5.55
2024-01-19T16:24:18.489Z,5.53
2024-01-19T16:27:06.176Z,5.40
2024-01-19T16:29:54.561Z,5.35
2024-01-19T16:32:47.836Z,5.26
2024-01-19T16:35:42.054Z,5.29
2024-01-19T16:38:30.753Z,5.23
2024-01-19T16:41:20.896Z,5.10
2024-01-19T16:44:10.086Z,5.09
2024-01-19T16:46:57.982Z,5.10
2024-01-19T16:49:46.088Z,5.01
2024-01-19T16:52:33.304Z,5.00
2024-01-19T16:55:21.817Z,4.92
2024-01-19T16:58:10.884Z,4.91
2024-01-19T17:00:58.736Z,4.84
2024-01-19T17:03:48.586Z,4.82
2024-01-19T17:06:37.046Z,4.59
2024-01-19T17:09:27.413Z,4.78
2024-01-19T17:12:16.298Z,4.68
2024-01-19T17:15:03.650Z,4.63
2024-01-19T17:17:51.376Z,4.66
2024-01-19T17:20:41.817Z,4.62
2024-01-19T17:23:30.017Z,4.59
2024-01-19T17:26:17.407Z,4.58
2024-01-19T17:29:04.964Z,4.56
2024-01-19T17:31:52.531Z,4.54
2024-01-19T17:34:41.928Z,4.55
2024-01-19T17:37:30.226Z,4.54
2024-01-19T17:40:22.610Z,4.49
2024-01-19T17:43:11.923Z,4.43
2024-01-19T17:45:59.465Z,4.41
2024-01-19T17:48:46.815Z,4.31
2024-01-19T17:51:34.040Z,4.31
2024-01-19T17:54:22.838Z,4.26
2024-01-19T17:57:10.307Z,4.17
2024-01-19T17:59:57.508Z,4.24
2024-01-19T18:02:45.613Z,4.28
2024-01-19T18:05:33.055Z,4.26
2024-01-19T18:08:20.528Z,4.23
2024-01-19T18:11:07.923Z,4.14
2024-01-19T18:13:57.272Z,4.17
2024-01-19T18:16:45.020Z,4.09
2024-01-19T18:19:33.545Z,4.08
2024-01-19T18:22:21.390Z,4.06
2024-01-19T18:25:17.600Z,4.08
2024-01-19T18:28:07.230Z,4.06
2024-01-19T18:30:56.148Z,4.03
2024-01-19T18:33:45.103Z,4.03
2024-01-19T18:36:33.495Z,3.83
2024-01-19T18:39:20.848Z,3.97
2024-01-19T18:42:09.639Z,3.95
2024-01-19T18:44:58.075Z,3.93
2024-01-19T18:47:51.563Z,3.88
2024-01-19T18:50:38.913Z,3.78
2024-01-19T18:53:26.646Z,3.83
2024-01-19T18:56:28.687Z,3.83
2024-01-19T18:59:17.224Z,3.78
2024-01-19T19:02:06.570Z,3.79
2024-01-19T19:04:54.028Z,3.73
2024-01-19T19:07:41.385Z,3.72
2024-01-19T19:10:29.212Z,3.71
2024-01-19T19:13:17.621Z,3.66
2024-01-19T19:16:18.028Z,3.65
2024-01-19T19:19:09.951Z,3.45
2024-01-19T19:21:59.017Z,3.55
2024-01-19T19:24:46.353Z,3.52
2024-01-19T19:27:34.934Z,3.52
2024-01-19T19:30:25.568Z,3.50
2024-01-19T19:33:12.902Z,3.52
2024-01-19T19:36:03.854Z,3.47
2024-01-19T19:38:51.439Z,3.35
2024-01-19T19:41:39.331Z,3.37
2024-01-19T19:44:29.132Z,3.39
2024-01-19T19:47:19.091Z,3.35
2024-01-19T19:50:08.279Z,3.31
2024-01-19T19:52:55.614Z,3.21
2024-01-19T19:55:48.373Z,3.17
2024-01-19T19:58:41.855Z,3.15
2024-01-19T20:01:30.053Z,3.06
2024-01-19T20:04:17.428Z,3.02
2024-01-19T20:07:11.808Z,2.99
2024-01-19T20:09:59.424Z,3.01
2024-01-19T20:12:50.656Z,3.04
2024-01-19T20:15:38.421Z,2.99
2024-01-19T20:18:29.367Z,2.95
2024-01-19T20:21:26.788Z,2.91
2024-01-19T20:24:16.433Z,2.93
2024-01-19T20:27:04.949Z,2.87
2024-01-19T20:29:52.944Z,2.90
2024-01-19T20:32:47.102Z,2.83
2024-01-19T20:35:38.550Z,2.81
2024-01-19T20:38:26.471Z,2.78
2024-01-19T20:41:15.983Z,2.68
2024-01-19T20:44:04.658Z,2.72
2024-01-19T20:46:52.064Z,2.72
2024-01-19T20:49:40.833Z,2.62
2024-01-19T20:52:28.244Z,2.66
2024-01-19T20:55:25.055Z,2.64
2024-01-19T20:58:12.807Z,2.61
2024-01-19T21:01:05.259Z,2.61
2024-01-19T21:03:53.999Z,2.61
2024-01-19T21:06:41.608Z,2.49
2024-01-19T21:09:31.393Z,2.57
2024-01-19T21:12:21.165Z,2.51
2024-01-19T21:15:18.138Z,2.40
2024-01-19T21:18:08.973Z,2.39
2024-01-19T21:21:00.264Z,2.45
2024-01-19T21:23:48.896Z,2.44
2024-01-19T21:26:40.892Z,2.41
2024-01-19T21:29:30.036Z,2.38
2024-01-19T21:32:19.729Z,2.31
2024-01-19T21:35:17.753Z,2.31
2024-01-19T21:38:05.008Z,2.34
2024-01-19T21:40:53.809Z,2.28
2024-01-19T21:43:42.699Z,2.23
2024-01-19T21:46:31.027Z,2.23
2024-01-19T21:49:21.118Z,2.22
2024-01-19T21:52:09.947Z,2.25
2024-01-19T21:55:01.442Z,2.22
2024-01-19T21:57:48.701Z,2.21
2024-01-19T22:00:37.701Z,2.18
2024-01-19T22:03:26.921Z,2.21
2024-01-19T22:06:26.198Z,2.15
2024-01-19T22:09:15.606Z,2.09
2024-01-19T22:12:06.618Z,2.14
2024-01-19T22:14:58.567Z,2.12
2024-01-19T22:17:46.497Z,2.13
2024-01-19T22:20:34.839Z,2.03
2024-01-19T22:23:30.145Z,2.09
2024-01-19T22:26:17.417Z,2.05
2024-01-19T22:29:04.795Z,2.07
2024-01-19T22:31:54.933Z,2.00
2024-01-19T22:34:45.054Z,1.98
2024-01-19T22:37:35.964Z,1.93
2024-01-19T22:40:24.822Z,2.02
2024-01-19T22:43:18.054Z,2.00
2024-01-19T22:46:08.485Z,1.97
2024-01-19T22:48:56.748Z,2.01
2024-01-19T22:51:46.625Z,2.03
2024-01-19T22:54:35.067Z,2.06
2024-01-19T22:57:25.499Z,2.14
2024-01-19T23:00:16.385Z,2.12
2024-01-19T23:03:04.196Z,2.14
2024-01-19T23:05:51.968Z,2.21
2024-01-19T23:08:39.414Z,2.13
2024-01-19T23:11:29.152Z,2.28
2024-01-19T23:14:18.073Z,2.36
2024-01-19T23:17:06.455Z,2.40
2024-01-19T23:19:55.019Z,2.42
2024-01-19T23:22:42.651Z,2.43
2024-01-19T23:25:37.379Z,2.44
2024-01-19T23:28:25.379Z,2.50
2024-01-19T23:31:13.748Z,2.50
2024-01-19T23:34:01.078Z,2.61
2024-01-19T23:36:49.574Z,2.61
2024-01-19T23:39:39.306Z,2.62
2024-01-19T23:42:26.957Z,2.66
2024-01-19T23:45:14.540Z,2.65
2024-01-19T23:48:06.974Z,2.60
2024-01-19T23:50:54.357Z,2.63
2024-01-19T23:53:41.816Z,2.56
2024-01-19T23:56:34.778Z,2.49
2024-01-19T23:59:21.999Z,2.48
